createdAt,value
2018-03-08T00:01:17.373Z,86.49
2018-03-08T00:03:46.476Z,86.68
2018-03-08T00:06:14.787Z,87.01
2018-03-08T00:08:43.137Z,86.52
2018-03-08T00:11:11.463Z,87.36
2018-03-08T00:13:39.810Z,86.99
2018-03-08T00:16:08.121Z,85.37
2018-03-08T00:18:36.469Z,86.24
2018-03-08T00:21:04.796Z,86.49
2018-03-08T00:23:33.150Z,86.56
2018-03-08T00:26:01.509Z,85.76
2018-03-08T00:28:29.841Z,85.79
2018-03-08T00:30:58.969Z,85.95
2018-03-08T00:33:27.348Z,86.22
2018-03-08T00:35:56.443Z,86.25
2018-03-08T00:38:24.750Z,86.29
2018-03-08T00:40:53.866Z,86.37
2018-03-08T00:43:22.211Z,86.62
2018-03-08T00:45:50.510Z,86.58
2018-03-08T00:48:18.863Z,86.55
2018-03-08T00:50:47.182Z,86.48
2018-03-08T00:53:16.279Z,86.44
2018-03-08T00:55:45.021Z,86.48
2018-03-08T00:58:13.341Z,86.50
2018-03-08T01:00:42.459Z,86.48
2018-03-08T01:03:10.807Z,86.34
2018-03-08T01:05:39.152Z,86.12
2018-03-08T01:08:07.495Z,85.80
2018-03-08T01:10:35.799Z,85.63
2018-03-08T01:13:04.143Z,85.35
2018-03-08T01:15:32.446Z,85.17
2018-03-08T01:18:00.759Z,85.08
2018-03-08T01:20:29.132Z,85.14
2018-03-08T01:22:57.885Z,85.15
2018-03-08T01:25:26.240Z,85.25
2018-03-08T01:27:54.583Z,85.15
2018-03-08T01:30:22.908Z,84.89
2018-03-08T01:32:51.261Z,84.58
2018-03-08T01:35:20.331Z,84.08
2018-03-08T01:37:48.649Z,83.76
2018-03-08T01:40:17.769Z,83.35
2018-03-08T01:42:46.092Z,83.10
2018-03-08T01:45:15.208Z,82.83
2018-03-08T01:47:43.568Z,82.52
2018-03-08T01:50:12.674Z,82.26
2018-03-08T01:52:41.033Z,81.99
2018-03-08T01:55:09.363Z,81.73
2018-03-08T01:57:38.840Z,81.60
2018-03-08T02:00:07.147Z,81.53
2018-03-08T02:02:35.505Z,81.35
2018-03-08T02:05:03.816Z,81.25
2018-03-08T02:07:32.136Z,81.00
2018-03-08T02:10:01.269Z,80.84
2018-03-08T02:12:29.608Z,80.64
2018-03-08T02:14:58.744Z,80.49
2018-03-08T02:17:27.091Z,80.37
2018-03-08T02:19:55.418Z,80.36
2018-03-08T02:22:23.780Z,80.21
2018-03-08T02:24:52.106Z,80.04
2018-03-08T02:27:21.210Z,79.95
2018-03-08T02:29:50.287Z,79.83
2018-03-08T02:32:18.597Z,79.71
2018-03-08T02:34:47.030Z,79.65
2018-03-08T02:37:15.336Z,79.56
2018-03-08T02:39:44.437Z,79.53
2018-03-08T02:42:13.535Z,79.61
2018-03-08T02:44:41.902Z,79.70
2018-03-08T02:47:10.984Z,79.80
2018-03-08T02:49:39.279Z,79.71
2018-03-08T02:52:08.398Z,79.76
2018-03-08T02:54:37.481Z,79.71
2018-03-08T02:57:05.821Z,79.60
2018-03-08T02:59:34.203Z,79.50
2018-03-08T03:02:02.526Z,79.34
2018-03-08T03:04:30.840Z,79.22
2018-03-08T03:06:59.200Z,79.06
2018-03-08T03:09:27.510Z,78.96
2018-03-08T03:11:55.842Z,78.90
2018-03-08T03:14:24.163Z,78.64
2018-03-08T03:16:52.475Z,78.57
2018-03-08T03:19:20.831Z,78.45
2018-03-08T03:21:49.890Z,78.32
2018-03-08T03:24:18.218Z,78.24
2018-03-08T03:26:47.311Z,78.24
2018-03-08T03:29:16.410Z,78.15
2018-03-08T03:31:44.735Z,78.07
2018-03-08T03:34:13.054Z,78.06
2018-03-08T03:36:42.194Z,78.10
2018-03-08T03:39:10.520Z,78.13
2018-03-08T03:41:38.864Z,78.17
2018-03-08T03:44:07.174Z,78.29
2018-03-08T03:46:36.312Z,78.30
2018-03-08T03:49:04.616Z,78.23
2018-03-08T03:51:32.923Z,78.02
2018-03-08T03:54:02.018Z,78.00
2018-03-08T03:56:31.096Z,78.00
2018-03-08T03:58:59.430Z,78.07
2018-03-08T04:01:27.759Z,78.12
2018-03-08T04:03:56.108Z,78.24
2018-03-08T04:06:24.447Z,78.30
2018-03-08T04:08:52.786Z,78.22
2018-03-08T04:11:21.176Z,78.09
2018-03-08T04:13:50.247Z,78.05
2018-03-08T04:16:18.587Z,78.00
2018-03-08T04:18:46.887Z,77.81
2018-03-08T04:21:15.213Z,77.70
2018-03-08T04:23:44.270Z,77.55
2018-03-08T04:26:12.627Z,77.36
2018-03-08T04:28:40.939Z,77.22
2018-03-08T04:31:09.243Z,77.17
2018-03-08T04:33:37.586Z,77.11
2018-03-08T04:36:05.899Z,77.03
2018-03-08T04:38:34.205Z,77.04
2018-03-08T04:41:02.552Z,77.01
2018-03-08T04:43:30.886Z,76.97
2018-03-08T04:45:59.329Z,77.00
2018-03-08T04:48:27.657Z,76.86
2018-03-08T04:50:55.992Z,76.89
2018-03-08T04:53:24.334Z,76.87
2018-03-08T04:55:53.399Z,76.93
2018-03-08T04:58:21.733Z,76.89
2018-03-08T05:00:50.045Z,76.93
2018-03-08T05:03:18.366Z,76.90
2018-03-08T05:05:46.701Z,76.92
2018-03-08T05:08:15.022Z,76.77
2018-03-08T05:10:43.313Z,76.71
2018-03-08T05:13:11.647Z,76.71
2018-03-08T05:15:39.958Z,76.67
2018-03-08T05:18:08.307Z,76.72
2018-03-08T05:20:36.597Z,76.88
2018-03-08T05:23:05.767Z,76.94
2018-03-08T05:25:34.123Z,77.09
2018-03-08T05:28:02.427Z,77.22
2018-03-08T05:30:30.787Z,77.18
2018-03-08T05:32:59.096Z,77.20
2018-03-08T05:35:28.188Z,77.27
2018-03-08T05:37:57.306Z,77.42
2018-03-08T05:40:25.647Z,77.42
2018-03-08T05:42:53.987Z,77.47
2018-03-08T05:45:22.291Z,77.50
2018-03-08T05:47:50.655Z,77.48
2018-03-08T05:50:18.958Z,77.42
2018-03-08T05:52:47.256Z,77.39
2018-03-08T05:55:15.603Z,77.27
2018-03-08T05:57:43.931Z,77.24
2018-03-08T06:00:12.266Z,77.21
2018-03-08T06:02:41.490Z,76.94
2018-03-08T06:05:09.972Z,76.81
2018-03-08T06:07:38.282Z,76.54
2018-03-08T06:10:06.669Z,76.47
2018-03-08T06:12:34.986Z,76.30
2018-03-08T06:15:04.117Z,76.06
2018-03-08T06:17:32.418Z,75.89
2018-03-08T06:20:00.730Z,75.68
2018-03-08T06:22:29.846Z,75.59
2018-03-08T06:24:58.190Z,75.26
2018-03-08T06:27:26.495Z,75.02
2018-03-08T06:29:55.613Z,74.83
2018-03-08T06:32:23.919Z,74.77
2018-03-08T06:34:52.248Z,74.53
2018-03-08T06:37:21.342Z,74.22
2018-03-08T06:39:49.663Z,73.74
2018-03-08T06:42:17.994Z,73.27
2018-03-08T06:44:47.093Z,73.28
2018-03-08T06:47:15.416Z,73.45
2018-03-08T06:49:43.762Z,73.33
2018-03-08T06:52:12.471Z,73.38
2018-03-08T06:54:40.813Z,73.29
2018-03-08T06:57:09.162Z,73.35
2018-03-08T06:59:37.478Z,73.01
2018-03-08T07:02:05.784Z,72.74
2018-03-08T07:04:34.100Z,72.12
2018-03-08T07:07:03.201Z,72.12
2018-03-08T07:09:32.309Z,72.24
2018-03-08T07:12:00.609Z,72.22
2018-03-08T07:14:28.954Z,71.93
2018-03-08T07:16:58.039Z,71.56
2018-03-08T07:19:27.162Z,71.51
2018-03-08T07:21:55.461Z,71.38
2018-03-08T07:24:23.800Z,71.45
2018-03-08T07:26:52.914Z,71.33
2018-03-08T07:29:21.212Z,70.59
2018-03-08T07:31:49.544Z,70.28
2018-03-08T07:34:18.611Z,69.91
2018-03-08T07:36:46.924Z,69.64
2018-03-08T07:39:16.030Z,68.31
2018-03-08T07:41:45.178Z,67.04
2018-03-08T07:44:13.490Z,66.13
2018-03-08T07:46:42.591Z,65.86
2018-03-08T07:49:10.906Z,65.24
2018-03-08T07:51:39.273Z,64.53
2018-03-08T07:54:07.574Z,63.60
2018-03-08T07:56:35.902Z,63.17
2018-03-08T07:59:04.238Z,64.29
2018-03-08T08:01:32.532Z,65.83
2018-03-08T08:04:01.637Z,65.75
2018-03-08T08:06:48.600Z,65.49
2018-03-08T08:09:17.298Z,65.43
2018-03-08T08:11:45.632Z,66.24
2018-03-08T08:14:13.938Z,66.44
2018-03-08T08:16:42.290Z,66.54
2018-03-08T08:19:10.599Z,66.37
2018-03-08T08:21:38.935Z,66.86
2018-03-08T08:24:07.282Z,66.78
2018-03-08T08:26:35.596Z,66.89
2018-03-08T08:29:03.938Z,67.26
2018-03-08T08:31:32.243Z,68.18
2018-03-08T08:34:00.586Z,69.72
2018-03-08T08:36:28.881Z,69.96
2018-03-08T08:38:57.998Z,69.73
2018-03-08T08:41:26.298Z,69.90
2018-03-08T08:43:54.623Z,69.61
2018-03-08T08:46:23.717Z,69.09
2018-03-08T08:48:52.832Z,69.18
2018-03-08T08:51:21.906Z,69.57
2018-03-08T08:53:50.216Z,69.78
2018-03-08T08:56:18.570Z,69.47
2018-03-08T08:58:47.702Z,69.73
2018-03-08T09:01:16.049Z,69.56
2018-03-08T09:03:45.170Z,69.68
2018-03-08T09:06:13.533Z,69.29
2018-03-08T09:08:41.854Z,69.81
2018-03-08T09:11:10.192Z,69.82
2018-03-08T09:13:38.494Z,69.51
2018-03-08T09:16:06.836Z,69.50
2018-03-08T09:18:35.192Z,70.27
2018-03-08T09:21:03.563Z,70.54
2018-03-08T09:23:32.662Z,70.21
2018-03-08T09:26:01.034Z,69.59
2018-03-08T09:28:29.370Z,68.65
2018-03-08T09:30:57.689Z,68.67
2018-03-08T09:33:26.036Z,68.29
2018-03-08T09:35:55.102Z,68.29
2018-03-08T09:38:23.438Z,69.42
2018-03-08T09:40:51.756Z,69.91
2018-03-08T09:43:20.114Z,70.26
2018-03-08T09:45:49.194Z,69.44
2018-03-08T09:48:18.306Z,69.30
2018-03-08T09:50:46.646Z,68.88
2018-03-08T09:53:14.977Z,69.12
2018-03-08T09:55:43.388Z,69.05
2018-03-08T09:58:11.691Z,69.38
2018-03-08T10:00:40.200Z,69.17
2018-03-08T10:03:09.486Z,70.27
2018-03-08T10:05:38.587Z,71.22
2018-03-08T10:08:07.689Z,71.60
2018-03-08T10:10:36.014Z,71.86
2018-03-08T10:13:04.353Z,71.77
2018-03-08T10:15:33.493Z,71.18
2018-03-08T10:18:01.818Z,72.04
2018-03-08T10:20:30.165Z,72.33
2018-03-08T10:22:58.508Z,73.14
2018-03-08T10:25:26.829Z,73.30
2018-03-08T10:27:55.903Z,72.82
2018-03-08T10:30:24.269Z,73.77
2018-03-08T10:32:52.599Z,73.75
2018-03-08T10:35:21.684Z,73.79
2018-03-08T10:37:50.045Z,73.84
2018-03-08T10:40:18.376Z,73.63
2018-03-08T10:42:47.105Z,72.66
2018-03-08T10:45:15.479Z,72.15
2018-03-08T10:47:43.832Z,71.78
2018-03-08T10:50:12.162Z,71.59
2018-03-08T10:52:41.848Z,71.63
2018-03-08T10:55:10.193Z,70.66
2018-03-08T10:57:38.631Z,70.17
2018-03-08T11:00:06.894Z,69.37
2018-03-08T11:05:41.022Z,64.46
2018-03-08T11:08:09.342Z,62.25
2018-03-08T11:10:38.860Z,61.73
2018-03-08T11:13:07.196Z,62.12
2018-03-08T11:15:36.330Z,63.81
2018-03-08T11:18:04.662Z,64.63
2018-03-08T11:20:33.824Z,65.14
2018-03-08T11:23:02.184Z,65.69
2018-03-08T11:25:30.512Z,65.21
2018-03-08T11:27:58.849Z,65.51
2018-03-08T11:30:27.238Z,65.19
2018-03-08T11:32:55.520Z,64.89
2018-03-08T11:35:23.961Z,65.79
2018-03-08T11:37:52.292Z,65.13
2018-03-08T11:40:21.380Z,65.12
2018-03-08T11:42:49.723Z,64.46
2018-03-08T11:45:18.077Z,63.68
2018-03-08T11:47:48.189Z,63.20
2018-03-08T11:50:15.502Z,62.45
2018-03-08T11:52:43.864Z,61.85
2018-03-08T11:55:12.195Z,61.58
2018-03-08T11:57:40.502Z,59.97
2018-03-08T12:00:08.906Z,58.53
2018-03-08T12:02:37.248Z,57.44
2018-03-08T12:05:05.584Z,56.86
2018-03-08T12:07:34.714Z,54.80
2018-03-08T12:10:03.010Z,53.91
2018-03-08T12:12:31.339Z,54.78
2018-03-08T12:15:00.455Z,55.52
2018-03-08T12:17:28.784Z,55.02
2018-03-08T12:19:57.082Z,55.31
2018-03-08T12:22:26.187Z,55.95
2018-03-08T12:24:55.264Z,56.35
2018-03-08T12:27:23.598Z,56.58
2018-03-08T12:29:53.323Z,56.39
2018-03-08T12:32:21.627Z,55.57
2018-03-08T12:34:49.930Z,54.73
2018-03-08T12:37:18.287Z,54.81
2018-03-08T12:39:46.590Z,53.90
2018-03-08T12:42:14.931Z,54.08
2018-03-08T12:44:43.235Z,53.46
2018-03-08T12:47:12.503Z,52.78
2018-03-08T12:49:40.829Z,51.78
2018-03-08T12:52:09.139Z,51.98
2018-03-08T12:54:37.461Z,52.43
2018-03-08T12:57:06.522Z,52.23
2018-03-08T12:59:34.851Z,51.21
2018-03-08T13:02:03.211Z,50.58
2018-03-08T13:04:32.309Z,49.57
2018-03-08T13:07:01.436Z,49.46
2018-03-08T13:09:29.745Z,49.10
2018-03-08T13:11:58.049Z,48.32
2018-03-08T13:14:27.160Z,47.28
2018-03-08T13:16:55.453Z,46.41
2018-03-08T13:19:23.775Z,45.27
2018-03-08T13:21:53.630Z,44.95
2018-03-08T13:24:21.961Z,45.31
2018-03-08T13:26:50.307Z,44.54
2018-03-08T13:29:19.047Z,42.88
2018-03-08T13:31:48.147Z,43.31
2018-03-08T13:34:17.267Z,42.56
2018-03-08T13:36:45.595Z,43.12
2018-03-08T13:39:13.939Z,43.78
2018-03-08T13:41:42.243Z,43.73
2018-03-08T13:44:10.603Z,42.80
2018-03-08T13:46:38.950Z,43.24
2018-03-08T13:49:24.999Z,42.78
2018-03-08T13:51:53.347Z,42.81
2018-03-08T13:54:21.691Z,42.01
2018-03-08T13:56:50.017Z,41.47
2018-03-08T13:59:18.337Z,41.88
2018-03-08T14:01:46.689Z,41.78
2018-03-08T14:04:15.047Z,42.42
2018-03-08T14:06:43.363Z,41.61
2018-03-08T14:09:12.493Z,41.40
2018-03-08T14:11:40.819Z,41.60
2018-03-08T14:14:09.179Z,42.04
2018-03-08T14:16:37.537Z,41.28
2018-03-08T14:19:05.903Z,41.63
2018-03-08T14:21:34.230Z,42.22
2018-03-08T14:24:02.586Z,42.00
2018-03-08T14:26:30.888Z,42.66
2018-03-08T14:28:59.237Z,42.94
2018-03-08T14:31:27.555Z,42.96
2018-03-08T14:33:56.686Z,43.77
2018-03-08T14:36:25.027Z,44.12
2018-03-08T14:38:54.111Z,43.55
2018-03-08T14:41:22.471Z,43.28
2018-03-08T14:43:50.784Z,42.03
2018-03-08T14:46:19.914Z,40.88
2018-03-08T14:48:48.257Z,42.34
2018-03-08T14:51:16.587Z,42.94
2018-03-08T14:53:44.907Z,43.97
2018-03-08T14:56:14.016Z,44.45
2018-03-08T14:58:42.362Z,43.22
2018-03-08T15:01:10.710Z,43.72
2018-03-08T15:03:39.018Z,43.39
2018-03-08T15:06:08.182Z,44.27
2018-03-08T15:08:36.481Z,44.62
2018-03-08T15:11:04.800Z,44.86
2018-03-08T15:13:33.137Z,45.75
2018-03-08T15:16:01.454Z,46.29
2018-03-08T15:18:29.758Z,46.52
2018-03-08T15:20:58.093Z,47.10
2018-03-08T15:23:27.160Z,47.25
2018-03-08T15:25:55.502Z,47.69
2018-03-08T15:28:23.834Z,47.50
2018-03-08T15:30:52.899Z,47.41
2018-03-08T15:33:21.242Z,47.98
2018-03-08T15:35:49.571Z,48.07
2018-03-08T15:38:17.909Z,48.56
2018-03-08T15:40:46.213Z,48.29
2018-03-08T15:43:14.545Z,48.58
2018-03-08T15:45:43.491Z,51.83
2018-03-08T15:48:11.794Z,48.47
2018-03-08T15:50:40.865Z,48.03
2018-03-08T15:53:09.200Z,51.89
2018-03-08T15:55:37.681Z,47.04
2018-03-08T15:58:05.986Z,50.31
2018-03-08T16:00:35.034Z,55.13
2018-03-08T16:03:03.409Z,48.45
2018-03-08T16:05:31.750Z,48.95
2018-03-08T16:11:39.001Z,49.79
2018-03-08T16:14:16.526Z,50.24
2018-03-08T16:16:45.032Z,50.47
2018-03-08T16:19:14.659Z,50.91
2018-03-08T16:21:43.066Z,51.56
2018-03-08T16:24:12.570Z,51.96
2018-03-08T16:26:40.926Z,52.05
2018-03-08T16:29:10.548Z,52.59
2018-03-08T16:31:39.471Z,53.02
2018-03-08T16:34:07.828Z,53.60
2018-03-08T16:36:36.622Z,53.76
2018-03-08T16:39:05.404Z,54.11
2018-03-08T16:41:33.774Z,54.76
2018-03-08T16:44:02.205Z,55.29
2018-03-08T16:46:30.581Z,55.68
2018-03-08T16:48:59.322Z,55.95
2018-03-08T16:51:27.738Z,56.49
2018-03-08T16:53:58.838Z,57.07
2018-03-08T16:56:28.358Z,56.68
2018-03-08T16:58:57.462Z,56.94
2018-03-08T17:01:25.902Z,57.24
2018-03-08T17:03:56.020Z,57.47
2018-03-08T17:06:25.444Z,57.82
2018-03-08T17:08:54.630Z,58.48
2018-03-08T17:11:23.186Z,58.41
2018-03-08T17:13:52.630Z,58.59
2018-03-08T17:16:21.765Z,59.07
2018-03-08T17:18:50.416Z,59.28
2018-03-08T17:21:19.170Z,59.67
2018-03-08T17:23:47.701Z,59.73
2018-03-08T17:26:16.069Z,60.08
2018-03-08T17:28:45.560Z,60.81
2018-03-08T17:31:15.075Z,60.95
2018-03-08T17:33:43.471Z,61.04
2018-03-08T17:36:11.842Z,61.61
2018-03-08T17:38:40.325Z,61.82
2018-03-08T17:41:08.910Z,61.98
2018-03-08T17:43:38.115Z,61.86
2018-03-08T17:46:08.348Z,61.65
2018-03-08T17:48:37.173Z,61.35
2018-03-08T17:51:05.478Z,60.77
2018-03-08T17:53:34.617Z,60.41
2018-03-08T17:56:02.933Z,60.17
2018-03-08T17:58:32.062Z,59.68
2018-03-08T18:01:01.140Z,59.74
2018-03-08T18:03:29.621Z,59.84
2018-03-08T18:05:58.363Z,59.84
2018-03-08T18:08:27.623Z,59.77
2018-03-08T18:10:56.069Z,59.88
2018-03-08T18:13:25.894Z,59.90
2018-03-08T18:15:55.636Z,59.64
2018-03-08T18:18:23.998Z,59.53
2018-03-08T18:20:52.332Z,59.27
2018-03-08T18:23:22.978Z,59.12
2018-03-08T18:25:51.307Z,58.94
2018-03-08T18:28:19.625Z,58.86
2018-03-08T18:30:48.928Z,58.82
2018-03-08T18:33:17.285Z,59.06
2018-03-08T18:35:46.350Z,59.22
2018-03-08T18:38:15.532Z,59.23
2018-03-08T18:40:43.857Z,59.19
2018-03-08T18:43:13.052Z,59.32
2018-03-08T18:45:42.159Z,59.40
2018-03-08T18:48:11.517Z,59.51
2018-03-08T18:50:40.550Z,59.64
2018-03-08T18:53:08.994Z,59.62
2018-03-08T18:55:37.402Z,59.63
2018-03-08T18:58:21.610Z,59.72
2018-03-08T19:00:49.994Z,59.95
2018-03-08T19:03:18.344Z,60.21
2018-03-08T19:05:48.210Z,60.55
2018-03-08T19:08:16.916Z,60.89
2018-03-08T19:10:46.628Z,61.22
2018-03-08T19:13:15.711Z,61.54
2018-03-08T19:15:44.850Z,61.85
2018-03-08T19:18:14.754Z,62.20
2018-03-08T19:20:43.563Z,62.68
2018-03-08T19:23:11.917Z,62.72
2018-03-08T19:25:40.991Z,62.75
2018-03-08T19:28:10.154Z,62.82
2018-03-08T19:30:38.508Z,62.88
2018-03-08T19:33:06.825Z,63.11
2018-03-08T19:35:36.915Z,63.15
2018-03-08T19:38:05.293Z,63.17
2018-03-08T19:40:33.671Z,63.56
2018-03-08T19:43:02.017Z,63.63
2018-03-08T19:45:31.897Z,63.68
2018-03-08T19:48:01.017Z,63.83
2018-03-08T19:50:29.367Z,63.97
2018-03-08T19:52:58.116Z,64.08
2018-03-08T19:55:26.854Z,64.08
2018-03-08T19:57:55.255Z,64.44
2018-03-08T20:00:23.604Z,64.33
2018-03-08T20:02:51.924Z,64.06
2018-03-08T20:05:20.278Z,63.86
2018-03-08T20:07:48.597Z,63.63
2018-03-08T20:10:17.355Z,63.68
2018-03-08T20:12:46.615Z,63.62
2018-03-08T20:15:17.052Z,63.44
2018-03-08T20:17:45.378Z,63.29
2018-03-08T20:20:13.966Z,63.30
2018-03-08T20:22:42.279Z,63.34
2018-03-08T20:25:11.386Z,63.56
2018-03-08T20:27:39.763Z,63.70
2018-03-08T20:30:08.143Z,63.80
2018-03-08T20:32:36.469Z,63.77
2018-03-08T20:35:05.274Z,63.78
2018-03-08T20:37:33.643Z,63.77
2018-03-08T20:40:02.399Z,63.78
2018-03-08T20:42:30.709Z,64.08
2018-03-08T20:44:59.127Z,64.11
2018-03-08T20:47:28.263Z,63.92
2018-03-08T20:49:57.014Z,63.93
2018-03-08T20:52:25.431Z,64.12
2018-03-08T20:54:53.751Z,64.02
2018-03-08T20:57:22.839Z,63.98
2018-03-08T20:59:52.323Z,64.04
2018-03-08T21:02:20.772Z,64.10
2018-03-08T21:04:49.092Z,64.06
2018-03-08T21:07:18.409Z,64.06
2018-03-08T21:09:47.496Z,63.88
2018-03-08T21:12:16.646Z,63.39
2018-03-08T21:14:45.022Z,63.14
2018-03-08T21:17:14.096Z,62.94
2018-03-08T21:19:42.419Z,62.96
2018-03-08T21:22:10.829Z,62.90
2018-03-08T21:24:39.911Z,62.96
2018-03-08T21:27:08.225Z,62.61
2018-03-08T21:29:36.961Z,62.63
2018-03-08T21:32:05.291Z,62.51
2018-03-08T21:34:33.631Z,62.25
2018-03-08T21:37:03.195Z,62.16
2018-03-08T21:39:33.076Z,61.75
2018-03-08T21:42:01.434Z,61.54
2018-03-08T21:44:30.186Z,61.33
2018-03-08T21:46:58.500Z,60.89
2018-03-08T21:49:27.630Z,60.75
2018-03-08T21:51:55.983Z,60.56
2018-03-08T21:54:25.063Z,60.37
2018-03-08T21:56:54.196Z,60.41
2018-03-08T21:59:22.496Z,60.46
2018-03-08T22:01:51.238Z,60.40
2018-03-08T22:04:19.587Z,60.41
2018-03-08T22:06:47.951Z,60.50
2018-03-08T22:09:16.266Z,60.47
2018-03-08T22:11:45.399Z,60.41
2018-03-08T22:14:13.745Z,60.46
2018-03-08T22:16:42.067Z,60.51
2018-03-08T22:19:10.477Z,60.83
2018-03-08T22:21:38.847Z,60.91
2018-03-08T22:24:07.211Z,62.06
2018-03-08T22:26:35.599Z,62.42
2018-03-08T22:29:03.951Z,63.70
2018-03-08T22:31:32.327Z,64.85
2018-03-08T22:34:00.699Z,65.36
2018-03-08T22:36:29.046Z,65.33
2018-03-08T22:38:57.371Z,66.01
2018-03-08T22:41:25.715Z,66.41
2018-03-08T22:43:54.038Z,67.90
2018-03-08T22:46:22.384Z,70.04
2018-03-08T22:48:50.741Z,70.92
2018-03-08T22:51:19.105Z,72.14
2018-03-08T22:53:48.237Z,73.00
2018-03-08T22:56:16.606Z,72.95
2018-03-08T22:58:45.043Z,72.40
2018-03-08T23:04:35.696Z,73.68
2018-03-08T23:07:04.027Z,73.84
2018-03-08T23:09:32.363Z,74.27
2018-03-08T23:12:00.670Z,74.45
2018-03-08T23:14:29.023Z,74.58
2018-03-08T23:16:57.334Z,74.89
2018-03-08T23:19:25.670Z,75.10
2018-03-08T23:21:54.018Z,75.30
2018-03-08T23:24:23.080Z,75.27
2018-03-08T23:26:51.421Z,75.78
2018-03-08T23:29:19.774Z,75.65
2018-03-08T23:31:48.084Z,75.69
2018-03-08T23:34:16.418Z,75.42
2018-03-08T23:36:45.537Z,75.46
2018-03-08T23:39:13.873Z,75.25
2018-03-08T23:41:42.184Z,75.80
2018-03-08T23:44:10.557Z,75.27
2018-03-08T23:46:38.856Z,75.17
2018-03-08T23:49:07.920Z,75.12
2018-03-08T23:51:37.047Z,75.41
2018-03-08T23:54:05.361Z,75.12
2018-03-08T23:56:33.656Z,74.75
2018-03-08T23:59:02.770Z,74.52
